<?xml version="1.0" encoding="UTF-8" standalone="no" ?>
<gpx xmlns="http://www.topografix.com/GPX/1/1" xmlns:xsi="http://www.w3.org/2001/XMLSchema-instance" xsi:schemaLocation="http://www.topografix.com/GPX/1/1 http://www.topografix.com/GPX/1/1/gpx.xsd" version="1.1" creator="VisuGPX - https://www.visugpx.com">
  <metadata>
    <name>17k 350m coub2020</name>
    <desc><![CDATA[Coublevitaine 2022 17 km]]></desc>
  </metadata>
  <trk>
    <name><![CDATA[17k 350m coub2020]]></name>
    <trkseg>
      <trkpt lat="45.35349" lon="5.612">
        <ele>315</ele>
        <time>2018-10-14T09:49:27Z</time>
      </trkpt>
      <trkpt lat="45.35349" lon="5.61199">
        <ele>314</ele>
        <time>2018-10-14T09:50:06Z</time>
      </trkpt>
      <trkpt lat="45.35348" lon="5.61199">
        <ele>315</ele>
        <time>2018-10-14T09:51:42Z</time>
      </trkpt>
      <trkpt lat="45.35348" lon="5.61199">
        <ele>315</ele>
        <time>2018-10-14T09:51:53Z</time>
      </trkpt>
      <trkpt lat="45.3534" lon="5.61194">
        <ele>315</ele>
        <time>2018-10-14T09:51:58Z</time>
      </trkpt>
      <trkpt lat="45.35338" lon="5.6119">
        <ele>315</ele>
        <time>2018-10-14T09:51:59Z</time>
      </trkpt>
      <trkpt lat="45.35337" lon="5.61187">
        <ele>315</ele>
        <time>2018-10-14T09:52:00Z</time>
      </trkpt>
      <trkpt lat="45.35303" lon="5.61153">
        <ele>314</ele>
        <time>2018-10-14T09:52:13Z</time>
      </trkpt>
      <trkpt lat="45.35255" lon="5.61145">
        <ele>315</ele>
        <time>2018-10-14T09:52:28Z</time>
      </trkpt>
      <trkpt lat="45.35209" lon="5.61149">
        <ele>316</ele>
        <time>2018-10-14T09:52:45Z</time>
      </trkpt>
      <trkpt lat="45.35213" lon="5.61208">
        <ele>317</ele>
        <time>2018-10-14T09:52:59Z</time>
      </trkpt>
      <trkpt lat="45.35215" lon="5.61285">
        <ele>318</ele>
        <time>2018-10-14T09:53:18Z</time>
      </trkpt>
      <trkpt lat="45.35212" lon="5.61322">
        <ele>320</ele>
        <time>2018-10-14T09:53:33Z</time>
      </trkpt>
      <trkpt lat="45.35219" lon="5.61355">
        <ele>323</ele>
        <time>2018-10-14T09:53:50Z</time>
      </trkpt>
      <trkpt lat="45.3522" lon="5.61382">
        <ele>326</ele>
        <time>2018-10-14T09:54:04Z</time>
      </trkpt>
      <trkpt lat="45.35221" lon="5.61409">
        <ele>329</ele>
        <time>2018-10-14T09:54:19Z</time>
      </trkpt>
      <trkpt lat="45.35217" lon="5.61436">
        <ele>332</ele>
        <time>2018-10-14T09:54:34Z</time>
      </trkpt>
      <trkpt lat="45.35211" lon="5.61468">
        <ele>335</ele>
        <time>2018-10-14T09:54:52Z</time>
      </trkpt>
      <trkpt lat="45.35198" lon="5.61512">
        <ele>337</ele>
        <time>2018-10-14T09:55:13Z</time>
      </trkpt>
      <trkpt lat="45.35183" lon="5.61561">
        <ele>338</ele>
        <time>2018-10-14T09:55:31Z</time>
      </trkpt>
      <trkpt lat="45.3515" lon="5.61605">
        <ele>341</ele>
        <time>2018-10-14T09:55:52Z</time>
      </trkpt>
      <trkpt lat="45.35147" lon="5.61617">
        <ele>342</ele>
        <time>2018-10-14T09:55:56Z</time>
      </trkpt>
      <trkpt lat="45.35148" lon="5.61619">
        <ele>342</ele>
        <time>2018-10-14T09:55:57Z</time>
      </trkpt>
      <trkpt lat="45.3518" lon="5.61662">
        <ele>343</ele>
        <time>2018-10-14T09:56:17Z</time>
      </trkpt>
      <trkpt lat="45.35188" lon="5.61675">
        <ele>344</ele>
        <time>2018-10-14T09:56:23Z</time>
      </trkpt>
      <trkpt lat="45.35214" lon="5.61708">
        <ele>345</ele>
        <time>2018-10-14T09:56:39Z</time>
      </trkpt>
      <trkpt lat="45.35248" lon="5.61755">
        <ele>347</ele>
        <time>2018-10-14T09:57:01Z</time>
      </trkpt>
      <trkpt lat="45.35281" lon="5.61799">
        <ele>349</ele>
        <time>2018-10-14T09:57:23Z</time>
      </trkpt>
      <trkpt lat="45.35282" lon="5.61806">
        <ele>349</ele>
        <time>2018-10-14T09:57:26Z</time>
      </trkpt>
      <trkpt lat="45.35289" lon="5.6184">
        <ele>350</ele>
        <time>2018-10-14T09:57:40Z</time>
      </trkpt>
      <trkpt lat="45.35284" lon="5.61886">
        <ele>352</ele>
        <time>2018-10-14T09:58:00Z</time>
      </trkpt>
      <trkpt lat="45.35283" lon="5.61888">
        <ele>352</ele>
        <time>2018-10-14T09:58:01Z</time>
      </trkpt>
      <trkpt lat="45.35269" lon="5.61896">
        <ele>355</ele>
        <time>2018-10-14T09:58:16Z</time>
      </trkpt>
      <trkpt lat="45.35251" lon="5.61906">
        <ele>357</ele>
        <time>2018-10-14T09:58:31Z</time>
      </trkpt>
      <trkpt lat="45.35238" lon="5.61921">
        <ele>358</ele>
        <time>2018-10-14T09:58:44Z</time>
      </trkpt>
      <trkpt lat="45.35223" lon="5.61933">
        <ele>361</ele>
        <time>2018-10-14T09:58:58Z</time>
      </trkpt>
      <trkpt lat="45.35201" lon="5.61949">
        <ele>364</ele>
        <time>2018-10-14T09:59:17Z</time>
      </trkpt>
      <trkpt lat="45.35183" lon="5.61958">
        <ele>367</ele>
        <time>2018-10-14T09:59:33Z</time>
      </trkpt>
      <trkpt lat="45.35172" lon="5.61976">
        <ele>370</ele>
        <time>2018-10-14T09:59:46Z</time>
      </trkpt>
      <trkpt lat="45.35158" lon="5.61997">
        <ele>373</ele>
        <time>2018-10-14T10:00:03Z</time>
      </trkpt>
      <trkpt lat="45.35157" lon="5.61998">
        <ele>373</ele>
        <time>2018-10-14T10:00:04Z</time>
      </trkpt>
      <trkpt lat="45.35141" lon="5.62018">
        <ele>375</ele>
        <time>2018-10-14T10:00:21Z</time>
      </trkpt>
      <trkpt lat="45.3512" lon="5.62037">
        <ele>377</ele>
        <time>2018-10-14T10:00:39Z</time>
      </trkpt>
      <trkpt lat="45.35108" lon="5.62048">
        <ele>378</ele>
        <time>2018-10-14T10:00:49Z</time>
      </trkpt>
      <trkpt lat="45.35097" lon="5.62058">
        <ele>378</ele>
        <time>2018-10-14T10:00:58Z</time>
      </trkpt>
      <trkpt lat="45.35087" lon="5.62071">
        <ele>378</ele>
        <time>2018-10-14T10:01:06Z</time>
      </trkpt>
      <trkpt lat="45.35089" lon="5.62102">
        <ele>381</ele>
        <time>2018-10-14T10:01:21Z</time>
      </trkpt>
      <trkpt lat="45.3509" lon="5.62113">
        <ele>382</ele>
        <time>2018-10-14T10:01:26Z</time>
      </trkpt>
      <trkpt lat="45.35069" lon="5.62134">
        <ele>382</ele>
        <time>2018-10-14T10:01:41Z</time>
      </trkpt>
      <trkpt lat="45.35049" lon="5.62143">
        <ele>382</ele>
        <time>2018-10-14T10:01:50Z</time>
      </trkpt>
      <trkpt lat="45.3505" lon="5.62166">
        <ele>383</ele>
        <time>2018-10-14T10:02:00Z</time>
      </trkpt>
      <trkpt lat="45.35053" lon="5.62177">
        <ele>383</ele>
        <time>2018-10-14T10:02:04Z</time>
      </trkpt>
      <trkpt lat="45.35064" lon="5.62246">
        <ele>381</ele>
        <time>2018-10-14T10:02:15Z</time>
      </trkpt>
      <trkpt lat="45.35066" lon="5.62271">
        <ele>381</ele>
        <time>2018-10-14T10:02:21Z</time>
      </trkpt>
      <trkpt lat="45.35063" lon="5.62276">
        <ele>382</ele>
        <time>2018-10-14T10:02:24Z</time>
      </trkpt>
      <trkpt lat="45.35032" lon="5.62302">
        <ele>385</ele>
        <time>2018-10-14T10:02:42Z</time>
      </trkpt>
      <trkpt lat="45.35007" lon="5.6232">
        <ele>388</ele>
        <time>2018-10-14T10:02:59Z</time>
      </trkpt>
      <trkpt lat="45.34989" lon="5.6229">
        <ele>390</ele>
        <time>2018-10-14T10:03:15Z</time>
      </trkpt>
      <trkpt lat="45.34962" lon="5.62277">
        <ele>393</ele>
        <time>2018-10-14T10:03:32Z</time>
      </trkpt>
      <trkpt lat="45.34933" lon="5.62305">
        <ele>395</ele>
        <time>2018-10-14T10:03:51Z</time>
      </trkpt>
      <trkpt lat="45.34934" lon="5.62307">
        <ele>395</ele>
        <time>2018-10-14T10:03:52Z</time>
      </trkpt>
      <trkpt lat="45.34936" lon="5.62307">
        <ele>395</ele>
        <time>2018-10-14T10:03:53Z</time>
      </trkpt>
      <trkpt lat="45.34973" lon="5.62316">
        <ele>397</ele>
        <time>2018-10-14T10:04:08Z</time>
      </trkpt>
      <trkpt lat="45.34991" lon="5.62335">
        <ele>396</ele>
        <time>2018-10-14T10:04:13Z</time>
      </trkpt>
      <trkpt lat="45.34994" lon="5.62341">
        <ele>396</ele>
        <time>2018-10-14T10:04:14Z</time>
      </trkpt>
      <trkpt lat="45.35009" lon="5.62361">
        <ele>395</ele>
        <time>2018-10-14T10:04:18Z</time>
      </trkpt>
      <trkpt lat="45.35013" lon="5.62365">
        <ele>395</ele>
        <time>2018-10-14T10:04:19Z</time>
      </trkpt>
      <trkpt lat="45.35017" lon="5.62367">
        <ele>395</ele>
        <time>2018-10-14T10:04:20Z</time>
      </trkpt>
      <trkpt lat="45.35021" lon="5.62369">
        <ele>395</ele>
        <time>2018-10-14T10:04:21Z</time>
      </trkpt>
      <trkpt lat="45.35025" lon="5.6237">
        <ele>395</ele>
        <time>2018-10-14T10:04:22Z</time>
      </trkpt>
      <trkpt lat="45.35029" lon="5.62371">
        <ele>395</ele>
        <time>2018-10-14T10:04:23Z</time>
      </trkpt>
      <trkpt lat="45.35032" lon="5.6237">
        <ele>395</ele>
        <time>2018-10-14T10:04:24Z</time>
      </trkpt>
      <trkpt lat="45.35036" lon="5.62369">
        <ele>395</ele>
        <time>2018-10-14T10:04:25Z</time>
      </trkpt>
      <trkpt lat="45.35039" lon="5.62368">
        <ele>395</ele>
        <time>2018-10-14T10:04:26Z</time>
      </trkpt>
      <trkpt lat="45.35042" lon="5.62366">
        <ele>395</ele>
        <time>2018-10-14T10:04:27Z</time>
      </trkpt>
      <trkpt lat="45.35071" lon="5.62347">
        <ele>398</ele>
        <time>2018-10-14T10:04:41Z</time>
      </trkpt>
      <trkpt lat="45.35103" lon="5.62361">
        <ele>401</ele>
        <time>2018-10-14T10:05:00Z</time>
      </trkpt>
      <trkpt lat="45.35111" lon="5.62377">
        <ele>403</ele>
        <time>2018-10-14T10:05:09Z</time>
      </trkpt>
      <trkpt lat="45.35137" lon="5.62407">
        <ele>406</ele>
        <time>2018-10-14T10:05:26Z</time>
      </trkpt>
      <trkpt lat="45.35173" lon="5.6244">
        <ele>409</ele>
        <time>2018-10-14T10:05:49Z</time>
      </trkpt>
      <trkpt lat="45.35199" lon="5.62476">
        <ele>412</ele>
        <time>2018-10-14T10:06:09Z</time>
      </trkpt>
      <trkpt lat="45.35225" lon="5.62506">
        <ele>414</ele>
        <time>2018-10-14T10:06:27Z</time>
      </trkpt>
      <trkpt lat="45.35255" lon="5.62537">
        <ele>417</ele>
        <time>2018-10-14T10:06:46Z</time>
      </trkpt>
      <trkpt lat="45.35293" lon="5.62577">
        <ele>418</ele>
        <time>2018-10-14T10:07:06Z</time>
      </trkpt>
      <trkpt lat="45.35327" lon="5.62607">
        <ele>421</ele>
        <time>2018-10-14T10:07:25Z</time>
      </trkpt>
      <trkpt lat="45.35389" lon="5.62629">
        <ele>422</ele>
        <time>2018-10-14T10:07:46Z</time>
      </trkpt>
      <trkpt lat="45.35441" lon="5.62644">
        <ele>423</ele>
        <time>2018-10-14T10:08:03Z</time>
      </trkpt>
      <trkpt lat="45.35496" lon="5.62664">
        <ele>423</ele>
        <time>2018-10-14T10:08:20Z</time>
      </trkpt>
      <trkpt lat="45.35542" lon="5.62671">
        <ele>422</ele>
        <time>2018-10-14T10:08:31Z</time>
      </trkpt>
      <trkpt lat="45.35598" lon="5.62667">
        <ele>419</ele>
        <time>2018-10-14T10:08:38Z</time>
      </trkpt>
      <trkpt lat="45.35658" lon="5.62673">
        <ele>416</ele>
        <time>2018-10-14T10:08:45Z</time>
      </trkpt>
      <trkpt lat="45.35724" lon="5.62687">
        <ele>415</ele>
        <time>2018-10-14T10:08:55Z</time>
      </trkpt>
      <trkpt lat="45.3573" lon="5.62687">
        <ele>415</ele>
        <time>2018-10-14T10:08:56Z</time>
      </trkpt>
      <trkpt lat="45.35736" lon="5.62686">
        <ele>415</ele>
        <time>2018-10-14T10:08:57Z</time>
      </trkpt>
      <trkpt lat="45.3582" lon="5.62646">
        <ele>413</ele>
        <time>2018-10-14T10:09:14Z</time>
      </trkpt>
      <trkpt lat="45.35892" lon="5.62629">
        <ele>413</ele>
        <time>2018-10-14T10:09:30Z</time>
      </trkpt>
      <trkpt lat="45.35938" lon="5.62619">
        <ele>416</ele>
        <time>2018-10-14T10:09:46Z</time>
      </trkpt>
      <trkpt lat="45.35975" lon="5.62629">
        <ele>418</ele>
        <time>2018-10-14T10:10:01Z</time>
      </trkpt>
      <trkpt lat="45.35995" lon="5.62664">
        <ele>421</ele>
        <time>2018-10-14T10:10:18Z</time>
      </trkpt>
      <trkpt lat="45.36013" lon="5.62699">
        <ele>423</ele>
        <time>2018-10-14T10:10:32Z</time>
      </trkpt>
      <trkpt lat="45.36013" lon="5.62703">
        <ele>423</ele>
        <time>2018-10-14T10:10:33Z</time>
      </trkpt>
      <trkpt lat="45.35998" lon="5.62786">
        <ele>423</ele>
        <time>2018-10-14T10:10:54Z</time>
      </trkpt>
      <trkpt lat="45.35981" lon="5.62874">
        <ele>425</ele>
        <time>2018-10-14T10:11:18Z</time>
      </trkpt>
      <trkpt lat="45.35968" lon="5.62942">
        <ele>428</ele>
        <time>2018-10-14T10:11:40Z</time>
      </trkpt>
      <trkpt lat="45.35965" lon="5.62949">
        <ele>429</ele>
        <time>2018-10-14T10:11:43Z</time>
      </trkpt>
      <trkpt lat="45.35963" lon="5.6295">
        <ele>429</ele>
        <time>2018-10-14T10:11:44Z</time>
      </trkpt>
      <trkpt lat="45.35961" lon="5.6295">
        <ele>429</ele>
        <time>2018-10-14T10:11:45Z</time>
      </trkpt>
      <trkpt lat="45.35958" lon="5.62948">
        <ele>429</ele>
        <time>2018-10-14T10:11:46Z</time>
      </trkpt>
      <trkpt lat="45.35956" lon="5.62947">
        <ele>429</ele>
        <time>2018-10-14T10:11:47Z</time>
      </trkpt>
      <trkpt lat="45.35914" lon="5.6293">
        <ele>430</ele>
        <time>2018-10-14T10:12:04Z</time>
      </trkpt>
      <trkpt lat="45.35868" lon="5.62922">
        <ele>429</ele>
        <time>2018-10-14T10:12:16Z</time>
      </trkpt>
      <trkpt lat="45.35833" lon="5.62923">
        <ele>430</ele>
        <time>2018-10-14T10:12:29Z</time>
      </trkpt>
      <trkpt lat="45.35812" lon="5.62932">
        <ele>432</ele>
        <time>2018-10-14T10:12:42Z</time>
      </trkpt>
      <trkpt lat="45.35796" lon="5.62937">
        <ele>433</ele>
        <time>2018-10-14T10:12:51Z</time>
      </trkpt>
      <trkpt lat="45.35794" lon="5.62937">
        <ele>433</ele>
        <time>2018-10-14T10:12:52Z</time>
      </trkpt>
      <trkpt lat="45.35755" lon="5.62947">
        <ele>434</ele>
        <time>2018-10-14T10:13:12Z</time>
      </trkpt>
      <trkpt lat="45.35729" lon="5.6295">
        <ele>435</ele>
        <time>2018-10-14T10:13:27Z</time>
      </trkpt>
      <trkpt lat="45.3571" lon="5.62957">
        <ele>436</ele>
        <time>2018-10-14T10:13:39Z</time>
      </trkpt>
      <trkpt lat="45.35709" lon="5.62958">
        <ele>437</ele>
        <time>2018-10-14T10:13:40Z</time>
      </trkpt>
      <trkpt lat="45.35708" lon="5.62959">
        <ele>437</ele>
        <time>2018-10-14T10:13:41Z</time>
      </trkpt>
      <trkpt lat="45.35707" lon="5.6296">
        <ele>437</ele>
        <time>2018-10-14T10:13:42Z</time>
      </trkpt>
      <trkpt lat="45.35705" lon="5.6296">
        <ele>437</ele>
        <time>2018-10-14T10:13:43Z</time>
      </trkpt>
      <trkpt lat="45.35689" lon="5.62972">
        <ele>440</ele>
        <time>2018-10-14T10:13:58Z</time>
      </trkpt>
      <trkpt lat="45.35675" lon="5.62986">
        <ele>443</ele>
        <time>2018-10-14T10:14:11Z</time>
      </trkpt>
      <trkpt lat="45.35662" lon="5.6301">
        <ele>446</ele>
        <time>2018-10-14T10:14:27Z</time>
      </trkpt>
      <trkpt lat="45.35648" lon="5.63037">
        <ele>450</ele>
        <time>2018-10-14T10:14:46Z</time>
      </trkpt>
      <trkpt lat="45.35647" lon="5.63041">
        <ele>450</ele>
        <time>2018-10-14T10:14:49Z</time>
      </trkpt>
      <trkpt lat="45.35646" lon="5.63042">
        <ele>450</ele>
        <time>2018-10-14T10:14:50Z</time>
      </trkpt>
      <trkpt lat="45.35637" lon="5.63068">
        <ele>453</ele>
        <time>2018-10-14T10:15:06Z</time>
      </trkpt>
      <trkpt lat="45.35627" lon="5.63083">
        <ele>456</ele>
        <time>2018-10-14T10:15:19Z</time>
      </trkpt>
      <trkpt lat="45.3561" lon="5.63096">
        <ele>460</ele>
        <time>2018-10-14T10:15:35Z</time>
      </trkpt>
      <trkpt lat="45.35608" lon="5.63097">
        <ele>460</ele>
        <time>2018-10-14T10:15:37Z</time>
      </trkpt>
      <trkpt lat="45.35607" lon="5.63098">
        <ele>460</ele>
        <time>2018-10-14T10:15:38Z</time>
      </trkpt>
      <trkpt lat="45.35606" lon="5.63099">
        <ele>460</ele>
        <time>2018-10-14T10:15:39Z</time>
      </trkpt>
      <trkpt lat="45.35606" lon="5.631">
        <ele>460</ele>
        <time>2018-10-14T10:15:40Z</time>
      </trkpt>
      <trkpt lat="45.35605" lon="5.63101">
        <ele>460</ele>
        <time>2018-10-14T10:15:41Z</time>
      </trkpt>
      <trkpt lat="45.35604" lon="5.63102">
        <ele>460</ele>
        <time>2018-10-14T10:15:42Z</time>
      </trkpt>
      <trkpt lat="45.35587" lon="5.63122">
        <ele>463</ele>
        <time>2018-10-14T10:16:00Z</time>
      </trkpt>
      <trkpt lat="45.3558" lon="5.63122">
        <ele>464</ele>
        <time>2018-10-14T10:16:05Z</time>
      </trkpt>
      <trkpt lat="45.35579" lon="5.63121">
        <ele>464</ele>
        <time>2018-10-14T10:16:06Z</time>
      </trkpt>
      <trkpt lat="45.35578" lon="5.63119">
        <ele>464</ele>
        <time>2018-10-14T10:16:07Z</time>
      </trkpt>
      <trkpt lat="45.35553" lon="5.63102">
        <ele>464</ele>
        <time>2018-10-14T10:16:23Z</time>
      </trkpt>
      <trkpt lat="45.35526" lon="5.63078">
        <ele>465</ele>
        <time>2018-10-14T10:16:42Z</time>
      </trkpt>
      <trkpt lat="45.35493" lon="5.63063">
        <ele>467</ele>
        <time>2018-10-14T10:17:04Z</time>
      </trkpt>
      <trkpt lat="45.35469" lon="5.6308">
        <ele>469</ele>
        <time>2018-10-14T10:17:24Z</time>
      </trkpt>
      <trkpt lat="45.35441" lon="5.63089">
        <ele>472</ele>
        <time>2018-10-14T10:17:45Z</time>
      </trkpt>
      <trkpt lat="45.35418" lon="5.63088">
        <ele>475</ele>
        <time>2018-10-14T10:18:01Z</time>
      </trkpt>
      <trkpt lat="45.35417" lon="5.63088">
        <ele>475</ele>
        <time>2018-10-14T10:18:02Z</time>
      </trkpt>
      <trkpt lat="45.35416" lon="5.63088">
        <ele>475</ele>
        <time>2018-10-14T10:18:03Z</time>
      </trkpt>
      <trkpt lat="45.35395" lon="5.63086">
        <ele>477</ele>
        <time>2018-10-14T10:18:18Z</time>
      </trkpt>
      <trkpt lat="45.35369" lon="5.63075">
        <ele>480</ele>
        <time>2018-10-14T10:18:37Z</time>
      </trkpt>
      <trkpt lat="45.35348" lon="5.63064">
        <ele>483</ele>
        <time>2018-10-14T10:18:55Z</time>
      </trkpt>
      <trkpt lat="45.35326" lon="5.63056">
        <ele>485</ele>
        <time>2018-10-14T10:19:13Z</time>
      </trkpt>
      <trkpt lat="45.35306" lon="5.63051">
        <ele>486</ele>
        <time>2018-10-14T10:19:27Z</time>
      </trkpt>
      <trkpt lat="45.35289" lon="5.63051">
        <ele>487</ele>
        <time>2018-10-14T10:19:39Z</time>
      </trkpt>
      <trkpt lat="45.35265" lon="5.63053">
        <ele>490</ele>
        <time>2018-10-14T10:19:55Z</time>
      </trkpt>
      <trkpt lat="45.35257" lon="5.63054">
        <ele>490</ele>
        <time>2018-10-14T10:20:00Z</time>
      </trkpt>
      <trkpt lat="45.35237" lon="5.63056">
        <ele>492</ele>
        <time>2018-10-14T10:20:14Z</time>
      </trkpt>
      <trkpt lat="45.3522" lon="5.63068">
        <ele>494</ele>
        <time>2018-10-14T10:20:29Z</time>
      </trkpt>
      <trkpt lat="45.3521" lon="5.63078">
        <ele>495</ele>
        <time>2018-10-14T10:20:38Z</time>
      </trkpt>
      <trkpt lat="45.35194" lon="5.63092">
        <ele>498</ele>
        <time>2018-10-14T10:20:55Z</time>
      </trkpt>
      <trkpt lat="45.35191" lon="5.63095">
        <ele>499</ele>
        <time>2018-10-14T10:21:24Z</time>
      </trkpt>
      <trkpt lat="45.35188" lon="5.63095">
        <ele>499</ele>
        <time>2018-10-14T10:21:28Z</time>
      </trkpt>
      <trkpt lat="45.35184" lon="5.63096">
        <ele>499</ele>
        <time>2018-10-14T10:21:31Z</time>
      </trkpt>
      <trkpt lat="45.35181" lon="5.63098">
        <ele>499</ele>
        <time>2018-10-14T10:21:34Z</time>
      </trkpt>
      <trkpt lat="45.35179" lon="5.63099">
        <ele>500</ele>
        <time>2018-10-14T10:21:36Z</time>
      </trkpt>
      <trkpt lat="45.35161" lon="5.63102">
        <ele>503</ele>
        <time>2018-10-14T10:21:52Z</time>
      </trkpt>
      <trkpt lat="45.35147" lon="5.63101">
        <ele>505</ele>
        <time>2018-10-14T10:22:03Z</time>
      </trkpt>
      <trkpt lat="45.35123" lon="5.63098">
        <ele>506</ele>
        <time>2018-10-14T10:22:20Z</time>
      </trkpt>
      <trkpt lat="45.35117" lon="5.63098">
        <ele>507</ele>
        <time>2018-10-14T10:22:23Z</time>
      </trkpt>
      <trkpt lat="45.35091" lon="5.631">
        <ele>509</ele>
        <time>2018-10-14T10:22:39Z</time>
      </trkpt>
      <trkpt lat="45.35073" lon="5.63105">
        <ele>510</ele>
        <time>2018-10-14T10:22:52Z</time>
      </trkpt>
      <trkpt lat="45.35067" lon="5.63107">
        <ele>510</ele>
        <time>2018-10-14T10:22:56Z</time>
      </trkpt>
      <trkpt lat="45.35048" lon="5.63115">
        <ele>512</ele>
        <time>2018-10-14T10:23:09Z</time>
      </trkpt>
      <trkpt lat="45.35041" lon="5.63117">
        <ele>513</ele>
        <time>2018-10-14T10:23:14Z</time>
      </trkpt>
      <trkpt lat="45.35021" lon="5.63125">
        <ele>515</ele>
        <time>2018-10-14T10:23:29Z</time>
      </trkpt>
      <trkpt lat="45.35007" lon="5.6314">
        <ele>518</ele>
        <time>2018-10-14T10:23:46Z</time>
      </trkpt>
      <trkpt lat="45.35005" lon="5.63141">
        <ele>518</ele>
        <time>2018-10-14T10:23:47Z</time>
      </trkpt>
      <trkpt lat="45.34987" lon="5.63155">
        <ele>521</ele>
        <time>2018-10-14T10:24:02Z</time>
      </trkpt>
      <trkpt lat="45.34973" lon="5.63168">
        <ele>523</ele>
        <time>2018-10-14T10:24:16Z</time>
      </trkpt>
      <trkpt lat="45.34953" lon="5.63178">
        <ele>526</ele>
        <time>2018-10-14T10:24:32Z</time>
      </trkpt>
      <trkpt lat="45.34949" lon="5.63181">
        <ele>527</ele>
        <time>2018-10-14T10:24:35Z</time>
      </trkpt>
      <trkpt lat="45.34944" lon="5.63185">
        <ele>527</ele>
        <time>2018-10-14T10:24:39Z</time>
      </trkpt>
      <trkpt lat="45.34932" lon="5.63195">
        <ele>529</ele>
        <time>2018-10-14T10:24:51Z</time>
      </trkpt>
      <trkpt lat="45.34912" lon="5.63206">
        <ele>532</ele>
        <time>2018-10-14T10:25:08Z</time>
      </trkpt>
      <trkpt lat="45.34901" lon="5.63213">
        <ele>533</ele>
        <time>2018-10-14T10:25:17Z</time>
      </trkpt>
      <trkpt lat="45.34891" lon="5.63224">
        <ele>537</ele>
        <time>2018-10-14T10:25:34Z</time>
      </trkpt>
      <trkpt lat="45.34881" lon="5.63235">
        <ele>539</ele>
        <time>2018-10-14T10:25:52Z</time>
      </trkpt>
      <trkpt lat="45.34871" lon="5.63242">
        <ele>542</ele>
        <time>2018-10-14T10:26:10Z</time>
      </trkpt>
      <trkpt lat="45.34861" lon="5.63249">
        <ele>543</ele>
        <time>2018-10-14T10:26:29Z</time>
      </trkpt>
      <trkpt lat="45.34855" lon="5.63252">
        <ele>544</ele>
        <time>2018-10-14T10:26:34Z</time>
      </trkpt>
      <trkpt lat="45.34846" lon="5.63272">
        <ele>546</ele>
        <time>2018-10-14T10:26:49Z</time>
      </trkpt>
      <trkpt lat="45.3484" lon="5.63281">
        <ele>548</ele>
        <time>2018-10-14T10:26:58Z</time>
      </trkpt>
      <trkpt lat="45.34817" lon="5.63289">
        <ele>550</ele>
        <time>2018-10-14T10:27:14Z</time>
      </trkpt>
      <trkpt lat="45.34816" lon="5.63292">
        <ele>550</ele>
        <time>2018-10-14T10:27:16Z</time>
      </trkpt>
      <trkpt lat="45.34816" lon="5.63295">
        <ele>550</ele>
        <time>2018-10-14T10:27:18Z</time>
      </trkpt>
      <trkpt lat="45.34828" lon="5.63298">
        <ele>550</ele>
        <time>2018-10-14T10:27:32Z</time>
      </trkpt>
      <trkpt lat="45.34852" lon="5.63294">
        <ele>550</ele>
        <time>2018-10-14T10:27:44Z</time>
      </trkpt>
      <trkpt lat="45.34857" lon="5.63292">
        <ele>549</ele>
        <time>2018-10-14T10:27:46Z</time>
      </trkpt>
      <trkpt lat="45.34869" lon="5.63289">
        <ele>549</ele>
        <time>2018-10-14T10:27:51Z</time>
      </trkpt>
      <trkpt lat="45.3491" lon="5.63284">
        <ele>547</ele>
        <time>2018-10-14T10:28:02Z</time>
      </trkpt>
      <trkpt lat="45.34953" lon="5.63279">
        <ele>545</ele>
        <time>2018-10-14T10:28:12Z</time>
      </trkpt>
      <trkpt lat="45.34987" lon="5.63301">
        <ele>545</ele>
        <time>2018-10-14T10:28:22Z</time>
      </trkpt>
      <trkpt lat="45.35013" lon="5.63327">
        <ele>545</ele>
        <time>2018-10-14T10:28:32Z</time>
      </trkpt>
      <trkpt lat="45.35052" lon="5.63351">
        <ele>543</ele>
        <time>2018-10-14T10:28:42Z</time>
      </trkpt>
      <trkpt lat="45.35061" lon="5.63355">
        <ele>542</ele>
        <time>2018-10-14T10:28:45Z</time>
      </trkpt>
      <trkpt lat="45.35071" lon="5.63367">
        <ele>542</ele>
        <time>2018-10-14T10:28:49Z</time>
      </trkpt>
      <trkpt lat="45.35077" lon="5.63372">
        <ele>542</ele>
        <time>2018-10-14T10:28:51Z</time>
      </trkpt>
      <trkpt lat="45.35087" lon="5.63379">
        <ele>543</ele>
        <time>2018-10-14T10:28:55Z</time>
      </trkpt>
      <trkpt lat="45.35126" lon="5.63398">
        <ele>542</ele>
        <time>2018-10-14T10:29:06Z</time>
      </trkpt>
      <trkpt lat="45.35185" lon="5.63425">
        <ele>541</ele>
        <time>2018-10-14T10:29:19Z</time>
      </trkpt>
      <trkpt lat="45.3522" lon="5.63444">
        <ele>539</ele>
        <time>2018-10-14T10:29:29Z</time>
      </trkpt>
      <trkpt lat="45.3526" lon="5.63461">
        <ele>539</ele>
        <time>2018-10-14T10:29:41Z</time>
      </trkpt>
      <trkpt lat="45.35295" lon="5.63476">
        <ele>537</ele>
        <time>2018-10-14T10:29:52Z</time>
      </trkpt>
      <trkpt lat="45.35333" lon="5.63498">
        <ele>536</ele>
        <time>2018-10-14T10:30:03Z</time>
      </trkpt>
      <trkpt lat="45.35369" lon="5.63529">
        <ele>534</ele>
        <time>2018-10-14T10:30:13Z</time>
      </trkpt>
      <trkpt lat="45.35391" lon="5.63542">
        <ele>533</ele>
        <time>2018-10-14T10:30:24Z</time>
      </trkpt>
      <trkpt lat="45.35398" lon="5.63545">
        <ele>533</ele>
        <time>2018-10-14T10:30:29Z</time>
      </trkpt>
      <trkpt lat="45.35429" lon="5.63548">
        <ele>532</ele>
        <time>2018-10-14T10:30:40Z</time>
      </trkpt>
      <trkpt lat="45.35462" lon="5.63555">
        <ele>531</ele>
        <time>2018-10-14T10:30:50Z</time>
      </trkpt>
      <trkpt lat="45.35496" lon="5.63569">
        <ele>530</ele>
        <time>2018-10-14T10:31:01Z</time>
      </trkpt>
      <trkpt lat="45.35525" lon="5.63585">
        <ele>529</ele>
        <time>2018-10-14T10:31:11Z</time>
      </trkpt>
      <trkpt lat="45.35561" lon="5.63615">
        <ele>528</ele>
        <time>2018-10-14T10:31:25Z</time>
      </trkpt>
      <trkpt lat="45.35566" lon="5.6362">
        <ele>528</ele>
        <time>2018-10-14T10:31:28Z</time>
      </trkpt>
      <trkpt lat="45.35576" lon="5.63623">
        <ele>528</ele>
        <time>2018-10-14T10:31:33Z</time>
      </trkpt>
      <trkpt lat="45.35593" lon="5.63628">
        <ele>527</ele>
        <time>2018-10-14T10:31:40Z</time>
      </trkpt>
      <trkpt lat="45.35608" lon="5.63654">
        <ele>529</ele>
        <time>2018-10-14T10:31:54Z</time>
      </trkpt>
      <trkpt lat="45.35617" lon="5.63673">
        <ele>532</ele>
        <time>2018-10-14T10:32:05Z</time>
      </trkpt>
      <trkpt lat="45.35632" lon="5.63689">
        <ele>534</ele>
        <time>2018-10-14T10:32:18Z</time>
      </trkpt>
      <trkpt lat="45.35634" lon="5.6369">
        <ele>534</ele>
        <time>2018-10-14T10:32:19Z</time>
      </trkpt>
      <trkpt lat="45.35662" lon="5.63725">
        <ele>532</ele>
        <time>2018-10-14T10:32:33Z</time>
      </trkpt>
      <trkpt lat="45.35686" lon="5.63762">
        <ele>532</ele>
        <time>2018-10-14T10:32:46Z</time>
      </trkpt>
      <trkpt lat="45.35698" lon="5.63777">
        <ele>531</ele>
        <time>2018-10-14T10:32:52Z</time>
      </trkpt>
      <trkpt lat="45.35724" lon="5.63805">
        <ele>530</ele>
        <time>2018-10-14T10:33:03Z</time>
      </trkpt>
      <trkpt lat="45.35744" lon="5.63825">
        <ele>530</ele>
        <time>2018-10-14T10:33:11Z</time>
      </trkpt>
      <trkpt lat="45.35756" lon="5.6385">
        <ele>531</ele>
        <time>2018-10-14T10:33:18Z</time>
      </trkpt>
      <trkpt lat="45.35763" lon="5.63865">
        <ele>531</ele>
        <time>2018-10-14T10:33:23Z</time>
      </trkpt>
      <trkpt lat="45.35781" lon="5.63893">
        <ele>533</ele>
        <time>2018-10-14T10:33:37Z</time>
      </trkpt>
      <trkpt lat="45.35792" lon="5.63909">
        <ele>534</ele>
        <time>2018-10-14T10:33:46Z</time>
      </trkpt>
      <trkpt lat="45.35802" lon="5.63939">
        <ele>535</ele>
        <time>2018-10-14T10:33:59Z</time>
      </trkpt>
      <trkpt lat="45.35813" lon="5.63952">
        <ele>536</ele>
        <time>2018-10-14T10:34:07Z</time>
      </trkpt>
      <trkpt lat="45.35822" lon="5.63959">
        <ele>536</ele>
        <time>2018-10-14T10:34:12Z</time>
      </trkpt>
      <trkpt lat="45.35841" lon="5.63994">
        <ele>534</ele>
        <time>2018-10-14T10:34:24Z</time>
      </trkpt>
      <trkpt lat="45.35849" lon="5.64007">
        <ele>534</ele>
        <time>2018-10-14T10:34:30Z</time>
      </trkpt>
      <trkpt lat="45.35869" lon="5.64009">
        <ele>531</ele>
        <time>2018-10-14T10:34:39Z</time>
      </trkpt>
      <trkpt lat="45.35883" lon="5.64009">
        <ele>528</ele>
        <time>2018-10-14T10:34:44Z</time>
      </trkpt>
      <trkpt lat="45.35897" lon="5.64002">
        <ele>525</ele>
        <time>2018-10-14T10:34:50Z</time>
      </trkpt>
      <trkpt lat="45.3591" lon="5.64016">
        <ele>525</ele>
        <time>2018-10-14T10:34:59Z</time>
      </trkpt>
      <trkpt lat="45.35921" lon="5.64026">
        <ele>525</ele>
        <time>2018-10-14T10:35:06Z</time>
      </trkpt>
      <trkpt lat="45.35936" lon="5.64052">
        <ele>527</ele>
        <time>2018-10-14T10:35:21Z</time>
      </trkpt>
      <trkpt lat="45.3595" lon="5.64079">
        <ele>529</ele>
        <time>2018-10-14T10:35:35Z</time>
      </trkpt>
      <trkpt lat="45.35951" lon="5.64081">
        <ele>529</ele>
        <time>2018-10-14T10:35:36Z</time>
      </trkpt>
      <trkpt lat="45.35961" lon="5.64101">
        <ele>531</ele>
        <time>2018-10-14T10:35:48Z</time>
      </trkpt>
      <trkpt lat="45.35963" lon="5.64103">
        <ele>532</ele>
        <time>2018-10-14T10:35:50Z</time>
      </trkpt>
      <trkpt lat="45.35984" lon="5.64126">
        <ele>531</ele>
        <time>2018-10-14T10:35:59Z</time>
      </trkpt>
      <trkpt lat="45.35996" lon="5.64148">
        <ele>532</ele>
        <time>2018-10-14T10:36:10Z</time>
      </trkpt>
      <trkpt lat="45.3601" lon="5.64176">
        <ele>532</ele>
        <time>2018-10-14T10:36:24Z</time>
      </trkpt>
      <trkpt lat="45.36028" lon="5.64207">
        <ele>529</ele>
        <time>2018-10-14T10:36:35Z</time>
      </trkpt>
      <trkpt lat="45.36052" lon="5.6424">
        <ele>527</ele>
        <time>2018-10-14T10:36:46Z</time>
      </trkpt>
      <trkpt lat="45.36062" lon="5.6425">
        <ele>527</ele>
        <time>2018-10-14T10:36:51Z</time>
      </trkpt>
      <trkpt lat="45.36082" lon="5.64268">
        <ele>525</ele>
        <time>2018-10-14T10:36:58Z</time>
      </trkpt>
      <trkpt lat="45.36112" lon="5.64279">
        <ele>522</ele>
        <time>2018-10-14T10:37:07Z</time>
      </trkpt>
      <trkpt lat="45.36142" lon="5.64299">
        <ele>521</ele>
        <time>2018-10-14T10:37:15Z</time>
      </trkpt>
      <trkpt lat="45.36155" lon="5.64315">
        <ele>520</ele>
        <time>2018-10-14T10:37:20Z</time>
      </trkpt>
      <trkpt lat="45.36169" lon="5.64326">
        <ele>520</ele>
        <time>2018-10-14T10:37:24Z</time>
      </trkpt>
      <trkpt lat="45.36198" lon="5.64355">
        <ele>520</ele>
        <time>2018-10-14T10:37:34Z</time>
      </trkpt>
      <trkpt lat="45.3621" lon="5.64365">
        <ele>520</ele>
        <time>2018-10-14T10:37:39Z</time>
      </trkpt>
      <trkpt lat="45.36237" lon="5.64374">
        <ele>520</ele>
        <time>2018-10-14T10:37:48Z</time>
      </trkpt>
      <trkpt lat="45.36271" lon="5.644">
        <ele>521</ele>
        <time>2018-10-14T10:38:01Z</time>
      </trkpt>
      <trkpt lat="45.36292" lon="5.64419">
        <ele>520</ele>
        <time>2018-10-14T10:38:08Z</time>
      </trkpt>
      <trkpt lat="45.36315" lon="5.64445">
        <ele>518</ele>
        <time>2018-10-14T10:38:19Z</time>
      </trkpt>
      <trkpt lat="45.36319" lon="5.6445">
        <ele>518</ele>
        <time>2018-10-14T10:38:21Z</time>
      </trkpt>
      <trkpt lat="45.36343" lon="5.64478">
        <ele>517</ele>
        <time>2018-10-14T10:38:32Z</time>
      </trkpt>
      <trkpt lat="45.36345" lon="5.64481">
        <ele>517</ele>
        <time>2018-10-14T10:38:33Z</time>
      </trkpt>
      <trkpt lat="45.36359" lon="5.64513">
        <ele>517</ele>
        <time>2018-10-14T10:38:42Z</time>
      </trkpt>
      <trkpt lat="45.36384" lon="5.64563">
        <ele>518</ele>
        <time>2018-10-14T10:38:57Z</time>
      </trkpt>
      <trkpt lat="45.36427" lon="5.64596">
        <ele>518</ele>
        <time>2018-10-14T10:39:10Z</time>
      </trkpt>
      <trkpt lat="45.36453" lon="5.64619">
        <ele>519</ele>
        <time>2018-10-14T10:39:21Z</time>
      </trkpt>
      <trkpt lat="45.36476" lon="5.64656">
        <ele>521</ele>
        <time>2018-10-14T10:39:38Z</time>
      </trkpt>
      <trkpt lat="45.36493" lon="5.64678">
        <ele>523</ele>
        <time>2018-10-14T10:39:51Z</time>
      </trkpt>
      <trkpt lat="45.36495" lon="5.6468">
        <ele>523</ele>
        <time>2018-10-14T10:39:52Z</time>
      </trkpt>
      <trkpt lat="45.36519" lon="5.64713">
        <ele>524</ele>
        <time>2018-10-14T10:40:08Z</time>
      </trkpt>
      <trkpt lat="45.36538" lon="5.64738">
        <ele>525</ele>
        <time>2018-10-14T10:40:20Z</time>
      </trkpt>
      <trkpt lat="45.36572" lon="5.64775">
        <ele>524</ele>
        <time>2018-10-14T10:40:32Z</time>
      </trkpt>
      <trkpt lat="45.36577" lon="5.64785">
        <ele>524</ele>
        <time>2018-10-14T10:40:35Z</time>
      </trkpt>
      <trkpt lat="45.36593" lon="5.64791">
        <ele>524</ele>
        <time>2018-10-14T10:40:41Z</time>
      </trkpt>
      <trkpt lat="45.36622" lon="5.64823">
        <ele>525</ele>
        <time>2018-10-14T10:40:54Z</time>
      </trkpt>
      <trkpt lat="45.36624" lon="5.64824">
        <ele>524</ele>
        <time>2018-10-14T10:40:55Z</time>
      </trkpt>
      <trkpt lat="45.3664" lon="5.64842">
        <ele>520</ele>
        <time>2018-10-14T10:41:02Z</time>
      </trkpt>
      <trkpt lat="45.36653" lon="5.64853">
        <ele>516</ele>
        <time>2018-10-14T10:41:07Z</time>
      </trkpt>
      <trkpt lat="45.36665" lon="5.6486">
        <ele>512</ele>
        <time>2018-10-14T10:41:11Z</time>
      </trkpt>
      <trkpt lat="45.36672" lon="5.64862">
        <ele>511</ele>
        <time>2018-10-14T10:41:13Z</time>
      </trkpt>
      <trkpt lat="45.36696" lon="5.64865">
        <ele>508</ele>
        <time>2018-10-14T10:41:17Z</time>
      </trkpt>
      <trkpt lat="45.36713" lon="5.64874">
        <ele>507</ele>
        <time>2018-10-14T10:41:21Z</time>
      </trkpt>
      <trkpt lat="45.3675" lon="5.64893">
        <ele>505</ele>
        <time>2018-10-14T10:41:32Z</time>
      </trkpt>
      <trkpt lat="45.36763" lon="5.64898">
        <ele>502</ele>
        <time>2018-10-14T10:41:37Z</time>
      </trkpt>
      <trkpt lat="45.36777" lon="5.64907">
        <ele>499</ele>
        <time>2018-10-14T10:41:42Z</time>
      </trkpt>
      <trkpt lat="45.36787" lon="5.64918">
        <ele>495</ele>
        <time>2018-10-14T10:41:46Z</time>
      </trkpt>
      <trkpt lat="45.36799" lon="5.64928">
        <ele>492</ele>
        <time>2018-10-14T10:41:50Z</time>
      </trkpt>
      <trkpt lat="45.36812" lon="5.64939">
        <ele>488</ele>
        <time>2018-10-14T10:41:54Z</time>
      </trkpt>
      <trkpt lat="45.36826" lon="5.64952">
        <ele>485</ele>
        <time>2018-10-14T10:41:58Z</time>
      </trkpt>
      <trkpt lat="45.36843" lon="5.64966">
        <ele>482</ele>
        <time>2018-10-14T10:42:03Z</time>
      </trkpt>
      <trkpt lat="45.36858" lon="5.6498">
        <ele>478</ele>
        <time>2018-10-14T10:42:08Z</time>
      </trkpt>
      <trkpt lat="45.36882" lon="5.65005">
        <ele>475</ele>
        <time>2018-10-14T10:42:15Z</time>
      </trkpt>
      <trkpt lat="45.36889" lon="5.65015">
        <ele>474</ele>
        <time>2018-10-14T10:42:17Z</time>
      </trkpt>
      <trkpt lat="45.36903" lon="5.65047">
        <ele>473</ele>
        <time>2018-10-14T10:42:25Z</time>
      </trkpt>
      <trkpt lat="45.36904" lon="5.65057">
        <ele>475</ele>
        <time>2018-10-14T10:42:37Z</time>
      </trkpt>
      <trkpt lat="45.36908" lon="5.65077">
        <ele>478</ele>
        <time>2018-10-14T10:42:53Z</time>
      </trkpt>
      <trkpt lat="45.3691" lon="5.65092">
        <ele>480</ele>
        <time>2018-10-14T10:43:09Z</time>
      </trkpt>
      <trkpt lat="45.36918" lon="5.65116">
        <ele>480</ele>
        <time>2018-10-14T10:43:22Z</time>
      </trkpt>
      <trkpt lat="45.36945" lon="5.65153">
        <ele>479</ele>
        <time>2018-10-14T10:43:36Z</time>
      </trkpt>
      <trkpt lat="45.36973" lon="5.65169">
        <ele>475</ele>
        <time>2018-10-14T10:43:44Z</time>
      </trkpt>
      <trkpt lat="45.37001" lon="5.65195">
        <ele>473</ele>
        <time>2018-10-14T10:43:54Z</time>
      </trkpt>
      <trkpt lat="45.37019" lon="5.65217">
        <ele>470</ele>
        <time>2018-10-14T10:44:02Z</time>
      </trkpt>
      <trkpt lat="45.37036" lon="5.65218">
        <ele>467</ele>
        <time>2018-10-14T10:44:09Z</time>
      </trkpt>
      <trkpt lat="45.37062" lon="5.65197">
        <ele>465</ele>
        <time>2018-10-14T10:44:19Z</time>
      </trkpt>
      <trkpt lat="45.37083" lon="5.6517">
        <ele>461</ele>
        <time>2018-10-14T10:44:28Z</time>
      </trkpt>
      <trkpt lat="45.37098" lon="5.65154">
        <ele>458</ele>
        <time>2018-10-14T10:44:34Z</time>
      </trkpt>
      <trkpt lat="45.37112" lon="5.65147">
        <ele>454</ele>
        <time>2018-10-14T10:44:39Z</time>
      </trkpt>
      <trkpt lat="45.37123" lon="5.65139">
        <ele>451</ele>
        <time>2018-10-14T10:44:44Z</time>
      </trkpt>
      <trkpt lat="45.37133" lon="5.65128">
        <ele>447</ele>
        <time>2018-10-14T10:44:48Z</time>
      </trkpt>
      <trkpt lat="45.37147" lon="5.65117">
        <ele>444</ele>
        <time>2018-10-14T10:44:53Z</time>
      </trkpt>
      <trkpt lat="45.37158" lon="5.65104">
        <ele>441</ele>
        <time>2018-10-14T10:44:58Z</time>
      </trkpt>
      <trkpt lat="45.37178" lon="5.65088">
        <ele>437</ele>
        <time>2018-10-14T10:45:05Z</time>
      </trkpt>
      <trkpt lat="45.37197" lon="5.65076">
        <ele>436</ele>
        <time>2018-10-14T10:45:09Z</time>
      </trkpt>
      <trkpt lat="45.37217" lon="5.6506">
        <ele>432</ele>
        <time>2018-10-14T10:45:14Z</time>
      </trkpt>
      <trkpt lat="45.37228" lon="5.65053">
        <ele>430</ele>
        <time>2018-10-14T10:45:18Z</time>
      </trkpt>
      <trkpt lat="45.37231" lon="5.65054">
        <ele>430</ele>
        <time>2018-10-14T10:45:19Z</time>
      </trkpt>
      <trkpt lat="45.37234" lon="5.65056">
        <ele>430</ele>
        <time>2018-10-14T10:45:20Z</time>
      </trkpt>
      <trkpt lat="45.37237" lon="5.65059">
        <ele>430</ele>
        <time>2018-10-14T10:45:21Z</time>
      </trkpt>
      <trkpt lat="45.3724" lon="5.65063">
        <ele>430</ele>
        <time>2018-10-14T10:45:22Z</time>
      </trkpt>
      <trkpt lat="45.37242" lon="5.65067">
        <ele>430</ele>
        <time>2018-10-14T10:45:23Z</time>
      </trkpt>
      <trkpt lat="45.37245" lon="5.65071">
        <ele>430</ele>
        <time>2018-10-14T10:45:24Z</time>
      </trkpt>
      <trkpt lat="45.37247" lon="5.65076">
        <ele>429</ele>
        <time>2018-10-14T10:45:25Z</time>
      </trkpt>
      <trkpt lat="45.3727" lon="5.65155">
        <ele>429</ele>
        <time>2018-10-14T10:45:39Z</time>
      </trkpt>
      <trkpt lat="45.3727" lon="5.65162">
        <ele>429</ele>
        <time>2018-10-14T10:45:40Z</time>
      </trkpt>
      <trkpt lat="45.37296" lon="5.65261">
        <ele>429</ele>
        <time>2018-10-14T10:45:57Z</time>
      </trkpt>
      <trkpt lat="45.37319" lon="5.65351">
        <ele>429</ele>
        <time>2018-10-14T10:46:14Z</time>
      </trkpt>
      <trkpt lat="45.37328" lon="5.65404">
        <ele>429</ele>
        <time>2018-10-14T10:46:22Z</time>
      </trkpt>
      <trkpt lat="45.37336" lon="5.65445">
        <ele>427</ele>
        <time>2018-10-14T10:46:26Z</time>
      </trkpt>
      <trkpt lat="45.37337" lon="5.65456">
        <ele>427</ele>
        <time>2018-10-14T10:46:27Z</time>
      </trkpt>
      <trkpt lat="45.37339" lon="5.65468">
        <ele>426</ele>
        <time>2018-10-14T10:46:28Z</time>
      </trkpt>
      <trkpt lat="45.37341" lon="5.65481">
        <ele>425</ele>
        <time>2018-10-14T10:46:29Z</time>
      </trkpt>
      <trkpt lat="45.37342" lon="5.65494">
        <ele>425</ele>
        <time>2018-10-14T10:46:30Z</time>
      </trkpt>
      <trkpt lat="45.37346" lon="5.65547">
        <ele>422</ele>
        <time>2018-10-14T10:46:34Z</time>
      </trkpt>
      <trkpt lat="45.37357" lon="5.65607">
        <ele>418</ele>
        <time>2018-10-14T10:46:38Z</time>
      </trkpt>
      <trkpt lat="45.37373" lon="5.65673">
        <ele>415</ele>
        <time>2018-10-14T10:46:43Z</time>
      </trkpt>
      <trkpt lat="45.3738" lon="5.65694">
        <ele>414</ele>
        <time>2018-10-14T10:46:45Z</time>
      </trkpt>
      <trkpt lat="45.37387" lon="5.65702">
        <ele>414</ele>
        <time>2018-10-14T10:46:46Z</time>
      </trkpt>
      <trkpt lat="45.37392" lon="5.65707">
        <ele>414</ele>
        <time>2018-10-14T10:46:47Z</time>
      </trkpt>
      <trkpt lat="45.37398" lon="5.6571">
        <ele>414</ele>
        <time>2018-10-14T10:46:48Z</time>
      </trkpt>
      <trkpt lat="45.37403" lon="5.65711">
        <ele>414</ele>
        <time>2018-10-14T10:46:49Z</time>
      </trkpt>
      <trkpt lat="45.37407" lon="5.65711">
        <ele>414</ele>
        <time>2018-10-14T10:46:50Z</time>
      </trkpt>
      <trkpt lat="45.37411" lon="5.6571">
        <ele>415</ele>
        <time>2018-10-14T10:46:51Z</time>
      </trkpt>
      <trkpt lat="45.37414" lon="5.65709">
        <ele>415</ele>
        <time>2018-10-14T10:46:52Z</time>
      </trkpt>
      <trkpt lat="45.37441" lon="5.65699">
        <ele>418</ele>
        <time>2018-10-14T10:47:07Z</time>
      </trkpt>
      <trkpt lat="45.37461" lon="5.65697">
        <ele>421</ele>
        <time>2018-10-14T10:47:22Z</time>
      </trkpt>
      <trkpt lat="45.37485" lon="5.65688">
        <ele>424</ele>
        <time>2018-10-14T10:47:40Z</time>
      </trkpt>
      <trkpt lat="45.37508" lon="5.65667">
        <ele>427</ele>
        <time>2018-10-14T10:47:57Z</time>
      </trkpt>
      <trkpt lat="45.37536" lon="5.65641">
        <ele>429</ele>
        <time>2018-10-14T10:48:17Z</time>
      </trkpt>
      <trkpt lat="45.37563" lon="5.65618">
        <ele>431</ele>
        <time>2018-10-14T10:48:35Z</time>
      </trkpt>
      <trkpt lat="45.37585" lon="5.65599">
        <ele>434</ele>
        <time>2018-10-14T10:48:50Z</time>
      </trkpt>
      <trkpt lat="45.37611" lon="5.65575">
        <ele>435</ele>
        <time>2018-10-14T10:49:07Z</time>
      </trkpt>
      <trkpt lat="45.37647" lon="5.6554">
        <ele>437</ele>
        <time>2018-10-14T10:49:25Z</time>
      </trkpt>
      <trkpt lat="45.37678" lon="5.65496">
        <ele>440</ele>
        <time>2018-10-14T10:49:44Z</time>
      </trkpt>
      <trkpt lat="45.37704" lon="5.65457">
        <ele>443</ele>
        <time>2018-10-14T10:50:02Z</time>
      </trkpt>
      <trkpt lat="45.37725" lon="5.65428">
        <ele>445</ele>
        <time>2018-10-14T10:50:16Z</time>
      </trkpt>
      <trkpt lat="45.37744" lon="5.65384">
        <ele>447</ele>
        <time>2018-10-14T10:50:32Z</time>
      </trkpt>
      <trkpt lat="45.37755" lon="5.65328">
        <ele>450</ele>
        <time>2018-10-14T10:50:51Z</time>
      </trkpt>
      <trkpt lat="45.37759" lon="5.65276">
        <ele>453</ele>
        <time>2018-10-14T10:51:08Z</time>
      </trkpt>
      <trkpt lat="45.37767" lon="5.6522">
        <ele>455</ele>
        <time>2018-10-14T10:51:25Z</time>
      </trkpt>
      <trkpt lat="45.37769" lon="5.65162">
        <ele>454</ele>
        <time>2018-10-14T10:51:38Z</time>
      </trkpt>
      <trkpt lat="45.37771" lon="5.65159">
        <ele>454</ele>
        <time>2018-10-14T10:51:39Z</time>
      </trkpt>
      <trkpt lat="45.37774" lon="5.65158">
        <ele>454</ele>
        <time>2018-10-14T10:51:40Z</time>
      </trkpt>
      <trkpt lat="45.37782" lon="5.65153">
        <ele>454</ele>
        <time>2018-10-14T10:51:43Z</time>
      </trkpt>
      <trkpt lat="45.37784" lon="5.6515">
        <ele>454</ele>
        <time>2018-10-14T10:51:44Z</time>
      </trkpt>
      <trkpt lat="45.37785" lon="5.65146">
        <ele>454</ele>
        <time>2018-10-14T10:51:45Z</time>
      </trkpt>
      <trkpt lat="45.37812" lon="5.65056">
        <ele>453</ele>
        <time>2018-10-14T10:52:03Z</time>
      </trkpt>
      <trkpt lat="45.3783" lon="5.65017">
        <ele>453</ele>
        <time>2018-10-14T10:52:11Z</time>
      </trkpt>
      <trkpt lat="45.37832" lon="5.65012">
        <ele>453</ele>
        <time>2018-10-14T10:52:12Z</time>
      </trkpt>
      <trkpt lat="45.3784" lon="5.64998">
        <ele>453</ele>
        <time>2018-10-14T10:52:15Z</time>
      </trkpt>
      <trkpt lat="45.37843" lon="5.64994">
        <ele>453</ele>
        <time>2018-10-14T10:52:16Z</time>
      </trkpt>
      <trkpt lat="45.379" lon="5.64925">
        <ele>452</ele>
        <time>2018-10-14T10:52:33Z</time>
      </trkpt>
      <trkpt lat="45.37903" lon="5.64921">
        <ele>452</ele>
        <time>2018-10-14T10:52:34Z</time>
      </trkpt>
      <trkpt lat="45.37942" lon="5.64862">
        <ele>452</ele>
        <time>2018-10-14T10:52:49Z</time>
      </trkpt>
      <trkpt lat="45.37948" lon="5.64818">
        <ele>452</ele>
        <time>2018-10-14T10:52:58Z</time>
      </trkpt>
      <trkpt lat="45.37957" lon="5.64714">
        <ele>451</ele>
        <time>2018-10-14T10:53:15Z</time>
      </trkpt>
      <trkpt lat="45.37963" lon="5.6462">
        <ele>450</ele>
        <time>2018-10-14T10:53:32Z</time>
      </trkpt>
      <trkpt lat="45.37919" lon="5.64512">
        <ele>446.678741</ele>
      </trkpt>
      <trkpt lat="45.37886" lon="5.64402">
        <ele>446.082367</ele>
      </trkpt>
      <trkpt lat="45.37821" lon="5.64318">
        <ele>447.028748</ele>
      </trkpt>
      <trkpt lat="45.37801" lon="5.64317">
        <ele>447.47876</ele>
        <time>2018-10-14T10:55:26Z</time>
      </trkpt>
      <trkpt lat="45.37781" lon="5.64383">
        <ele>448.002319</ele>
        <time>2018-10-14T10:55:27Z</time>
      </trkpt>
      <trkpt lat="45.37773" lon="5.64431">
        <ele>450</ele>
        <time>2018-10-14T10:55:31Z</time>
      </trkpt>
      <trkpt lat="45.37719" lon="5.64473">
        <ele>450</ele>
        <time>2018-10-14T10:56:50Z</time>
      </trkpt>
      <trkpt lat="45.37667" lon="5.64486">
        <ele>451</ele>
        <time>2018-10-14T10:57:04Z</time>
      </trkpt>
      <trkpt lat="45.37613" lon="5.64501">
        <ele>449</ele>
        <time>2018-10-14T10:57:19Z</time>
      </trkpt>
      <trkpt lat="45.37603" lon="5.645">
        <ele>448</ele>
        <time>2018-10-14T10:57:22Z</time>
      </trkpt>
      <trkpt lat="45.3757" lon="5.64492">
        <ele>448</ele>
        <time>2018-10-14T10:57:35Z</time>
      </trkpt>
      <trkpt lat="45.37536" lon="5.64479">
        <ele>449</ele>
        <time>2018-10-14T10:57:48Z</time>
      </trkpt>
      <trkpt lat="45.37484" lon="5.64463">
        <ele>447</ele>
        <time>2018-10-14T10:58:01Z</time>
      </trkpt>
      <trkpt lat="45.37451" lon="5.64427">
        <ele>445</ele>
        <time>2018-10-14T10:58:12Z</time>
      </trkpt>
      <trkpt lat="45.37417" lon="5.64391">
        <ele>443</ele>
        <time>2018-10-14T10:58:22Z</time>
      </trkpt>
      <trkpt lat="45.37387" lon="5.64364">
        <ele>443</ele>
        <time>2018-10-14T10:58:33Z</time>
      </trkpt>
      <trkpt lat="45.37348" lon="5.64346">
        <ele>444</ele>
        <time>2018-10-14T10:58:45Z</time>
      </trkpt>
      <trkpt lat="45.37317" lon="5.64331">
        <ele>446</ele>
        <time>2018-10-14T10:58:58Z</time>
      </trkpt>
      <trkpt lat="45.37285" lon="5.64319">
        <ele>446</ele>
        <time>2018-10-14T10:59:09Z</time>
      </trkpt>
      <trkpt lat="45.37246" lon="5.64292">
        <ele>444</ele>
        <time>2018-10-14T10:59:21Z</time>
      </trkpt>
      <trkpt lat="45.37217" lon="5.64281">
        <ele>441</ele>
        <time>2018-10-14T10:59:28Z</time>
      </trkpt>
      <trkpt lat="45.37212" lon="5.64279">
        <ele>441</ele>
        <time>2018-10-14T10:59:29Z</time>
      </trkpt>
      <trkpt lat="45.37186" lon="5.64263">
        <ele>436</ele>
        <time>2018-10-14T10:59:35Z</time>
      </trkpt>
      <trkpt lat="45.37164" lon="5.6426">
        <ele>433</ele>
        <time>2018-10-14T10:59:41Z</time>
      </trkpt>
      <trkpt lat="45.37156" lon="5.64258">
        <ele>431</ele>
        <time>2018-10-14T10:59:43Z</time>
      </trkpt>
      <trkpt lat="45.37151" lon="5.64256">
        <ele>431</ele>
        <time>2018-10-14T10:59:44Z</time>
      </trkpt>
      <trkpt lat="45.37128" lon="5.6424">
        <ele>428</ele>
        <time>2018-10-14T10:59:49Z</time>
      </trkpt>
      <trkpt lat="45.37124" lon="5.64236">
        <ele>427</ele>
        <time>2018-10-14T10:59:50Z</time>
      </trkpt>
      <trkpt lat="45.37121" lon="5.6423">
        <ele>427</ele>
        <time>2018-10-14T10:59:51Z</time>
      </trkpt>
      <trkpt lat="45.37119" lon="5.64224">
        <ele>426</ele>
        <time>2018-10-14T10:59:52Z</time>
      </trkpt>
      <trkpt lat="45.37117" lon="5.64216">
        <ele>426</ele>
        <time>2018-10-14T10:59:53Z</time>
      </trkpt>
      <trkpt lat="45.37114" lon="5.64202">
        <ele>424</ele>
        <time>2018-10-14T10:59:55Z</time>
      </trkpt>
      <trkpt lat="45.37111" lon="5.64195">
        <ele>424</ele>
        <time>2018-10-14T10:59:56Z</time>
      </trkpt>
      <trkpt lat="45.37109" lon="5.64189">
        <ele>424</ele>
        <time>2018-10-14T10:59:57Z</time>
      </trkpt>
      <trkpt lat="45.37096" lon="5.64155">
        <ele>423</ele>
        <time>2018-10-14T11:00:02Z</time>
      </trkpt>
      <trkpt lat="45.37089" lon="5.64104">
        <ele>421</ele>
        <time>2018-10-14T11:00:12Z</time>
      </trkpt>
      <trkpt lat="45.37098" lon="5.64052">
        <ele>421</ele>
        <time>2018-10-14T11:00:22Z</time>
      </trkpt>
      <trkpt lat="45.37111" lon="5.64021">
        <ele>421</ele>
        <time>2018-10-14T11:00:35Z</time>
      </trkpt>
      <trkpt lat="45.37111" lon="5.64021">
        <ele>421</ele>
        <time>2018-10-14T11:00:39Z</time>
      </trkpt>
      <trkpt lat="45.37124" lon="5.63995">
        <ele>422</ele>
        <time>2018-10-14T11:00:51Z</time>
      </trkpt>
      <trkpt lat="45.37134" lon="5.63957">
        <ele>424</ele>
        <time>2018-10-14T11:01:05Z</time>
      </trkpt>
      <trkpt lat="45.37148" lon="5.63921">
        <ele>425</ele>
        <time>2018-10-14T11:01:19Z</time>
      </trkpt>
      <trkpt lat="45.37168" lon="5.63893">
        <ele>426</ele>
        <time>2018-10-14T11:01:32Z</time>
      </trkpt>
      <trkpt lat="45.37191" lon="5.63848">
        <ele>427</ele>
        <time>2018-10-14T11:01:48Z</time>
      </trkpt>
      <trkpt lat="45.37205" lon="5.63801">
        <ele>428</ele>
        <time>2018-10-14T11:02:03Z</time>
      </trkpt>
      <trkpt lat="45.37219" lon="5.63741">
        <ele>429</ele>
        <time>2018-10-14T11:02:21Z</time>
      </trkpt>
      <trkpt lat="45.37217" lon="5.63667">
        <ele>431</ele>
        <time>2018-10-14T11:02:41Z</time>
      </trkpt>
      <trkpt lat="45.37213" lon="5.63612">
        <ele>432</ele>
        <time>2018-10-14T11:02:56Z</time>
      </trkpt>
      <trkpt lat="45.37228" lon="5.63557">
        <ele>434</ele>
        <time>2018-10-14T11:03:12Z</time>
      </trkpt>
      <trkpt lat="45.37274" lon="5.6354">
        <ele>435</ele>
        <time>2018-10-14T11:03:30Z</time>
      </trkpt>
      <trkpt lat="45.37324" lon="5.63566">
        <ele>438</ele>
        <time>2018-10-14T11:03:51Z</time>
      </trkpt>
      <trkpt lat="45.37355" lon="5.63619">
        <ele>439</ele>
        <time>2018-10-14T11:04:09Z</time>
      </trkpt>
      <trkpt lat="45.37379" lon="5.63687">
        <ele>440</ele>
        <time>2018-10-14T11:04:27Z</time>
      </trkpt>
      <trkpt lat="45.37408" lon="5.63743">
        <ele>441</ele>
        <time>2018-10-14T11:04:43Z</time>
      </trkpt>
      <trkpt lat="45.37426" lon="5.63765">
        <ele>442</ele>
        <time>2018-10-14T11:04:55Z</time>
      </trkpt>
      <trkpt lat="45.37431" lon="5.6376">
        <ele>442</ele>
        <time>2018-10-14T11:11:55Z</time>
      </trkpt>
      <trkpt lat="45.3739" lon="5.63695">
        <ele>442</ele>
        <time>2018-10-14T11:12:10Z</time>
      </trkpt>
      <trkpt lat="45.37369" lon="5.63635">
        <ele>441</ele>
        <time>2018-10-14T11:12:23Z</time>
      </trkpt>
      <trkpt lat="45.37341" lon="5.6356">
        <ele>440</ele>
        <time>2018-10-14T11:12:38Z</time>
      </trkpt>
      <trkpt lat="45.37334" lon="5.63538">
        <ele>440</ele>
        <time>2018-10-14T11:12:42Z</time>
      </trkpt>
      <trkpt lat="45.37304" lon="5.63464">
        <ele>437</ele>
        <time>2018-10-14T11:12:54Z</time>
      </trkpt>
      <trkpt lat="45.373" lon="5.63458">
        <ele>437</ele>
        <time>2018-10-14T11:12:55Z</time>
      </trkpt>
      <trkpt lat="45.37259" lon="5.63407">
        <ele>433</ele>
        <time>2018-10-14T11:13:05Z</time>
      </trkpt>
      <trkpt lat="45.37235" lon="5.63377">
        <ele>430</ele>
        <time>2018-10-14T11:13:12Z</time>
      </trkpt>
      <trkpt lat="45.37219" lon="5.63347">
        <ele>428</ele>
        <time>2018-10-14T11:13:17Z</time>
      </trkpt>
      <trkpt lat="45.3721" lon="5.63328">
        <ele>427</ele>
        <time>2018-10-14T11:13:21Z</time>
      </trkpt>
      <trkpt lat="45.37205" lon="5.63317">
        <ele>426</ele>
        <time>2018-10-14T11:13:23Z</time>
      </trkpt>
      <trkpt lat="45.37188" lon="5.63283">
        <ele>425</ele>
        <time>2018-10-14T11:13:29Z</time>
      </trkpt>
      <trkpt lat="45.37141" lon="5.63194">
        <ele>422</ele>
        <time>2018-10-14T11:13:45Z</time>
      </trkpt>
      <trkpt lat="45.37099" lon="5.63143">
        <ele>422</ele>
        <time>2018-10-14T11:13:59Z</time>
      </trkpt>
      <trkpt lat="45.37074" lon="5.63125">
        <ele>421</ele>
        <time>2018-10-14T11:14:06Z</time>
      </trkpt>
      <trkpt lat="45.37047" lon="5.63104">
        <ele>420</ele>
        <time>2018-10-14T11:14:13Z</time>
      </trkpt>
      <trkpt lat="45.37021" lon="5.63081">
        <ele>418</ele>
        <time>2018-10-14T11:14:20Z</time>
      </trkpt>
      <trkpt lat="45.36997" lon="5.63068">
        <ele>416</ele>
        <time>2018-10-14T11:14:25Z</time>
      </trkpt>
      <trkpt lat="45.36972" lon="5.63058">
        <ele>414</ele>
        <time>2018-10-14T11:14:30Z</time>
      </trkpt>
      <trkpt lat="45.3695" lon="5.63047">
        <ele>411</ele>
        <time>2018-10-14T11:14:38Z</time>
      </trkpt>
      <trkpt lat="45.3695" lon="5.63046">
        <ele>410</ele>
        <time>2018-10-14T11:14:52Z</time>
      </trkpt>
      <trkpt lat="45.36939" lon="5.63042">
        <ele>409</ele>
        <time>2018-10-14T11:14:56Z</time>
      </trkpt>
      <trkpt lat="45.36903" lon="5.63032">
        <ele>406</ele>
        <time>2018-10-14T11:15:06Z</time>
      </trkpt>
      <trkpt lat="45.36899" lon="5.63031">
        <ele>406</ele>
        <time>2018-10-14T11:15:07Z</time>
      </trkpt>
      <trkpt lat="45.36876" lon="5.63027">
        <ele>404</ele>
        <time>2018-10-14T11:15:12Z</time>
      </trkpt>
      <trkpt lat="45.36872" lon="5.63027">
        <ele>403</ele>
        <time>2018-10-14T11:15:13Z</time>
      </trkpt>
      <trkpt lat="45.36857" lon="5.63029">
        <ele>402</ele>
        <time>2018-10-14T11:15:16Z</time>
      </trkpt>
      <trkpt lat="45.36836" lon="5.63023">
        <ele>400</ele>
        <time>2018-10-14T11:15:21Z</time>
      </trkpt>
      <trkpt lat="45.36819" lon="5.63003">
        <ele>397</ele>
        <time>2018-10-14T11:15:26Z</time>
      </trkpt>
      <trkpt lat="45.368" lon="5.6297">
        <ele>395</ele>
        <time>2018-10-14T11:15:31Z</time>
      </trkpt>
      <trkpt lat="45.36777" lon="5.62924">
        <ele>393</ele>
        <time>2018-10-14T11:15:38Z</time>
      </trkpt>
      <trkpt lat="45.36758" lon="5.62877">
        <ele>393</ele>
        <time>2018-10-14T11:15:49Z</time>
      </trkpt>
      <trkpt lat="45.36758" lon="5.62874">
        <ele>393</ele>
        <time>2018-10-14T11:16:05Z</time>
      </trkpt>
      <trkpt lat="45.36757" lon="5.62872">
        <ele>393</ele>
        <time>2018-10-14T11:16:06Z</time>
      </trkpt>
      <trkpt lat="45.36756" lon="5.62869">
        <ele>393</ele>
        <time>2018-10-14T11:16:07Z</time>
      </trkpt>
      <trkpt lat="45.36744" lon="5.62819">
        <ele>393</ele>
        <time>2018-10-14T11:16:18Z</time>
      </trkpt>
      <trkpt lat="45.36725" lon="5.62762">
        <ele>392</ele>
        <time>2018-10-14T11:16:31Z</time>
      </trkpt>
      <trkpt lat="45.36706" lon="5.62705">
        <ele>393</ele>
        <time>2018-10-14T11:16:45Z</time>
      </trkpt>
      <trkpt lat="45.36698" lon="5.62634">
        <ele>393</ele>
        <time>2018-10-14T11:16:58Z</time>
      </trkpt>
      <trkpt lat="45.36684" lon="5.62494">
        <ele>395</ele>
        <time>2018-10-14T11:17:22Z</time>
      </trkpt>
      <trkpt lat="45.36663" lon="5.62372">
        <ele>396</ele>
        <time>2018-10-14T11:17:44Z</time>
      </trkpt>
      <trkpt lat="45.36626" lon="5.62263">
        <ele>397</ele>
        <time>2018-10-14T11:18:05Z</time>
      </trkpt>
      <trkpt lat="45.36589" lon="5.62198">
        <ele>399</ele>
        <time>2018-10-14T11:18:20Z</time>
      </trkpt>
      <trkpt lat="45.36555" lon="5.62157">
        <ele>399</ele>
        <time>2018-10-14T11:18:31Z</time>
      </trkpt>
      <trkpt lat="45.36555" lon="5.62148">
        <ele>399</ele>
        <time>2018-10-14T11:18:33Z</time>
      </trkpt>
      <trkpt lat="45.36556" lon="5.62142">
        <ele>399</ele>
        <time>2018-10-14T11:18:42Z</time>
      </trkpt>
      <trkpt lat="45.36556" lon="5.62141">
        <ele>399</ele>
        <time>2018-10-14T11:19:18Z</time>
      </trkpt>
      <trkpt lat="45.36557" lon="5.62141">
        <ele>399</ele>
        <time>2018-10-14T11:19:44Z</time>
      </trkpt>
      <trkpt lat="45.36557" lon="5.62142">
        <ele>399</ele>
        <time>2018-10-14T11:19:57Z</time>
      </trkpt>
      <trkpt lat="45.36556" lon="5.62142">
        <ele>399</ele>
        <time>2018-10-14T11:19:58Z</time>
      </trkpt>
      <trkpt lat="45.36555" lon="5.62141">
        <ele>399</ele>
        <time>2018-10-14T11:19:59Z</time>
      </trkpt>
      <trkpt lat="45.36554" lon="5.62139">
        <ele>399</ele>
        <time>2018-10-14T11:20:11Z</time>
      </trkpt>
      <trkpt lat="45.36555" lon="5.6214">
        <ele>399</ele>
        <time>2018-10-14T11:20:39Z</time>
      </trkpt>
      <trkpt lat="45.36552" lon="5.62139">
        <ele>399</ele>
        <time>2018-10-14T11:21:05Z</time>
      </trkpt>
      <trkpt lat="45.36549" lon="5.62139">
        <ele>399</ele>
        <time>2018-10-14T11:21:06Z</time>
      </trkpt>
      <trkpt lat="45.36546" lon="5.62139">
        <ele>399</ele>
        <time>2018-10-14T11:21:07Z</time>
      </trkpt>
      <trkpt lat="45.36539" lon="5.62137">
        <ele>399</ele>
        <time>2018-10-14T11:21:09Z</time>
      </trkpt>
      <trkpt lat="45.36536" lon="5.62134">
        <ele>399</ele>
        <time>2018-10-14T11:21:10Z</time>
      </trkpt>
      <trkpt lat="45.36532" lon="5.62131">
        <ele>399</ele>
        <time>2018-10-14T11:21:11Z</time>
      </trkpt>
      <trkpt lat="45.36522" lon="5.62111">
        <ele>399</ele>
        <time>2018-10-14T11:21:15Z</time>
      </trkpt>
      <trkpt lat="45.36518" lon="5.62108">
        <ele>399</ele>
        <time>2018-10-14T11:21:16Z</time>
      </trkpt>
      <trkpt lat="45.36515" lon="5.62107">
        <ele>399</ele>
        <time>2018-10-14T11:21:17Z</time>
      </trkpt>
      <trkpt lat="45.36502" lon="5.62105">
        <ele>399</ele>
        <time>2018-10-14T11:21:20Z</time>
      </trkpt>
      <trkpt lat="45.36489" lon="5.62103">
        <ele>399</ele>
        <time>2018-10-14T11:21:28Z</time>
      </trkpt>
      <trkpt lat="45.36482" lon="5.62095">
        <ele>396</ele>
        <time>2018-10-14T11:21:40Z</time>
      </trkpt>
      <trkpt lat="45.36481" lon="5.62091">
        <ele>394</ele>
        <time>2018-10-14T11:21:43Z</time>
      </trkpt>
      <trkpt lat="45.36477" lon="5.6209">
        <ele>392</ele>
        <time>2018-10-14T11:21:49Z</time>
      </trkpt>
      <trkpt lat="45.3646" lon="5.62093">
        <ele>392</ele>
        <time>2018-10-14T11:21:54Z</time>
      </trkpt>
      <trkpt lat="45.36418" lon="5.62093">
        <ele>389</ele>
        <time>2018-10-14T11:22:02Z</time>
      </trkpt>
      <trkpt lat="45.36407" lon="5.62093">
        <ele>388</ele>
        <time>2018-10-14T11:22:04Z</time>
      </trkpt>
      <trkpt lat="45.36381" lon="5.62094">
        <ele>384</ele>
        <time>2018-10-14T11:22:09Z</time>
      </trkpt>
      <trkpt lat="45.36375" lon="5.62093">
        <ele>383</ele>
        <time>2018-10-14T11:22:10Z</time>
      </trkpt>
      <trkpt lat="45.36362" lon="5.62074">
        <ele>380</ele>
        <time>2018-10-14T11:22:14Z</time>
      </trkpt>
      <trkpt lat="45.3636" lon="5.62067">
        <ele>380</ele>
        <time>2018-10-14T11:22:15Z</time>
      </trkpt>
      <trkpt lat="45.36359" lon="5.62058">
        <ele>380</ele>
        <time>2018-10-14T11:22:16Z</time>
      </trkpt>
      <trkpt lat="45.36356" lon="5.62024">
        <ele>377</ele>
        <time>2018-10-14T11:22:20Z</time>
      </trkpt>
      <trkpt lat="45.36355" lon="5.61999">
        <ele>375</ele>
        <time>2018-10-14T11:22:23Z</time>
      </trkpt>
      <trkpt lat="45.36354" lon="5.61963">
        <ele>371</ele>
        <time>2018-10-14T11:22:28Z</time>
      </trkpt>
      <trkpt lat="45.3635" lon="5.61943">
        <ele>369</ele>
        <time>2018-10-14T11:22:32Z</time>
      </trkpt>
      <trkpt lat="45.36344" lon="5.61928">
        <ele>368</ele>
        <time>2018-10-14T11:22:35Z</time>
      </trkpt>
      <trkpt lat="45.36341" lon="5.61924">
        <ele>368</ele>
        <time>2018-10-14T11:22:36Z</time>
      </trkpt>
      <trkpt lat="45.36322" lon="5.61908">
        <ele>366</ele>
        <time>2018-10-14T11:22:41Z</time>
      </trkpt>
      <trkpt lat="45.36305" lon="5.61901">
        <ele>364</ele>
        <time>2018-10-14T11:22:45Z</time>
      </trkpt>
      <trkpt lat="45.36297" lon="5.61896">
        <ele>363</ele>
        <time>2018-10-14T11:22:47Z</time>
      </trkpt>
      <trkpt lat="45.36276" lon="5.61871">
        <ele>360</ele>
        <time>2018-10-14T11:22:54Z</time>
      </trkpt>
      <trkpt lat="45.36253" lon="5.61855">
        <ele>356</ele>
        <time>2018-10-14T11:23:02Z</time>
      </trkpt>
      <trkpt lat="45.36229" lon="5.61844">
        <ele>353</ele>
        <time>2018-10-14T11:23:12Z</time>
      </trkpt>
      <trkpt lat="45.36179" lon="5.61829">
        <ele>350</ele>
        <time>2018-10-14T11:23:24Z</time>
      </trkpt>
      <trkpt lat="45.36148" lon="5.61839">
        <ele>347</ele>
        <time>2018-10-14T11:23:34Z</time>
      </trkpt>
      <trkpt lat="45.36071" lon="5.61886">
        <ele>344</ele>
        <time>2018-10-14T11:23:50Z</time>
      </trkpt>
      <trkpt lat="45.35993" lon="5.61908">
        <ele>340</ele>
        <time>2018-10-14T11:24:03Z</time>
      </trkpt>
      <trkpt lat="45.35908" lon="5.61926">
        <ele>338</ele>
        <time>2018-10-14T11:24:19Z</time>
      </trkpt>
      <trkpt lat="45.35831" lon="5.6195">
        <ele>335</ele>
        <time>2018-10-14T11:24:33Z</time>
      </trkpt>
      <trkpt lat="45.3581" lon="5.61959">
        <ele>333</ele>
        <time>2018-10-14T11:24:41Z</time>
      </trkpt>
      <trkpt lat="45.35768" lon="5.61957">
        <ele>333</ele>
        <time>2018-10-14T11:24:53Z</time>
      </trkpt>
      <trkpt lat="45.3572" lon="5.61901">
        <ele>333</ele>
        <time>2018-10-14T11:25:10Z</time>
      </trkpt>
      <trkpt lat="45.35696" lon="5.61845">
        <ele>334</ele>
        <time>2018-10-14T11:25:24Z</time>
      </trkpt>
      <trkpt lat="45.35694" lon="5.61845">
        <ele>334</ele>
        <time>2018-10-14T11:25:25Z</time>
      </trkpt>
      <trkpt lat="45.35691" lon="5.61846">
        <ele>334</ele>
        <time>2018-10-14T11:25:26Z</time>
      </trkpt>
      <trkpt lat="45.35688" lon="5.61847">
        <ele>334</ele>
        <time>2018-10-14T11:25:27Z</time>
      </trkpt>
      <trkpt lat="45.35686" lon="5.61849">
        <ele>335</ele>
        <time>2018-10-14T11:25:28Z</time>
      </trkpt>
      <trkpt lat="45.35743" lon="5.61803">
        <ele>321.779755</ele>
      </trkpt>
      <trkpt lat="45.35759" lon="5.6166">
        <ele>319.77124</ele>
      </trkpt>
      <trkpt lat="45.35633" lon="5.6157">
        <ele>321.081146</ele>
      </trkpt>
      <trkpt lat="45.35534" lon="5.6149">
        <ele>319.504364</ele>
      </trkpt>
      <trkpt lat="45.35494" lon="5.61408">
        <ele>308.763611</ele>
        <time>2018-10-14T11:27:16Z</time>
      </trkpt>
      <trkpt lat="45.35494" lon="5.6133">
        <ele>316</ele>
        <time>2018-10-14T11:27:23Z</time>
      </trkpt>
      <trkpt lat="45.35495" lon="5.61322">
        <ele>315</ele>
        <time>2018-10-14T11:27:24Z</time>
      </trkpt>
      <trkpt lat="45.35494" lon="5.61315">
        <ele>314</ele>
        <time>2018-10-14T11:27:25Z</time>
      </trkpt>
      <trkpt lat="45.35491" lon="5.6131">
        <ele>314</ele>
        <time>2018-10-14T11:27:26Z</time>
      </trkpt>
      <trkpt lat="45.35487" lon="5.61305">
        <ele>313</ele>
        <time>2018-10-14T11:27:27Z</time>
      </trkpt>
      <trkpt lat="45.35483" lon="5.61302">
        <ele>313</ele>
        <time>2018-10-14T11:27:28Z</time>
      </trkpt>
      <trkpt lat="45.35435" lon="5.61254">
        <ele>312</ele>
        <time>2018-10-14T11:27:40Z</time>
      </trkpt>
      <trkpt lat="45.35431" lon="5.61248">
        <ele>312</ele>
        <time>2018-10-14T11:27:41Z</time>
      </trkpt>
      <trkpt lat="45.35428" lon="5.61242">
        <ele>312</ele>
        <time>2018-10-14T11:27:42Z</time>
      </trkpt>
      <trkpt lat="45.35425" lon="5.61235">
        <ele>312</ele>
        <time>2018-10-14T11:27:43Z</time>
      </trkpt>
      <trkpt lat="45.35422" lon="5.61229">
        <ele>312</ele>
        <time>2018-10-14T11:27:44Z</time>
      </trkpt>
      <trkpt lat="45.35389" lon="5.61129">
        <ele>311</ele>
        <time>2018-10-14T11:27:59Z</time>
      </trkpt>
      <trkpt lat="45.35384" lon="5.61121">
        <ele>311</ele>
        <time>2018-10-14T11:28:01Z</time>
      </trkpt>
      <trkpt lat="45.3538" lon="5.61122">
        <ele>311</ele>
        <time>2018-10-14T11:28:02Z</time>
      </trkpt>
      <trkpt lat="45.35378" lon="5.61125">
        <ele>311</ele>
        <time>2018-10-14T11:28:03Z</time>
      </trkpt>
      <trkpt lat="45.35375" lon="5.61129">
        <ele>311</ele>
        <time>2018-10-14T11:28:04Z</time>
      </trkpt>
      <trkpt lat="45.35373" lon="5.61134">
        <ele>311</ele>
        <time>2018-10-14T11:28:05Z</time>
      </trkpt>
      <trkpt lat="45.35344" lon="5.61189">
        <ele>311</ele>
        <time>2018-10-14T11:28:19Z</time>
      </trkpt>
      <trkpt lat="45.35346" lon="5.61193">
        <ele>312</ele>
        <time>2018-10-14T11:28:29Z</time>
      </trkpt>
      <trkpt lat="45.35347" lon="5.61193">
        <ele>312</ele>
        <time>2018-10-14T11:30:11Z</time>
      </trkpt>
      <trkpt lat="45.35346" lon="5.61193">
        <ele>312</ele>
        <time>2018-10-14T11:34:48Z</time>
      </trkpt>
      <trkpt lat="45.35347" lon="5.61193">
        <ele>312</ele>
        <time>2018-10-14T11:35:02Z</time>
      </trkpt>
    </trkseg>
  </trk>
</gpx>